sensor_id;sensor_type;location;lat;lon;timestamp;P1;durP1;ratioP1;P2;durP2;ratioP2
42714;SDS011;28351;51.480;5.706;2022-09-23T00:01:27;11.95;;;8.13;;
42714;SDS011;28351;51.480;5.706;2022-09-23T00:03:54;14.18;;;8.07;;
42714;SDS011;28351;51.480;5.706;2022-09-23T00:06:22;12.32;;;8.65;;
42714;SDS011;28351;51.480;5.706;2022-09-23T00:08:49;13.15;;;7.72;;
42714;SDS011;28351;51.480;5.706;2022-09-23T00:11:25;13.30;;;8.13;;
42714;SDS011;28351;51.480;5.706;2022-09-23T00:13:53;13.07;;;8.48;;
42714;SDS011;28351;51.480;5.706;2022-09-23T00:16:32;12.57;;;7.90;;
42714;SDS011;28351;51.480;5.706;2022-09-23T00:18:59;11.77;;;8.38;;
42714;SDS011;28351;51.480;5.706;2022-09-23T00:21:26;18.00;;;9.27;;
42714;SDS011;28351;51.480;5.706;2022-09-23T00:23:52;12.13;;;8.75;;
42714;SDS011;28351;51.480;5.706;2022-09-23T00:26:18;11.45;;;8.35;;
42714;SDS011;28351;51.480;5.706;2022-09-23T00:28:45;12.52;;;8.55;;
42714;SDS011;28351;51.480;5.706;2022-09-23T00:31:16;11.27;;;8.43;;
42714;SDS011;28351;51.480;5.706;2022-09-23T00:33:44;12.45;;;8.10;;
42714;SDS011;28351;51.480;5.706;2022-09-23T00:36:10;12.73;;;8.48;;
42714;SDS011;28351;51.480;5.706;2022-09-23T00:38:42;11.55;;;8.63;;
42714;SDS011;28351;51.480;5.706;2022-09-23T00:41:08;12.18;;;8.43;;
42714;SDS011;28351;51.480;5.706;2022-09-23T00:43:42;13.07;;;8.48;;
42714;SDS011;28351;51.480;5.706;2022-09-23T00:46:17;12.23;;;8.70;;
42714;SDS011;28351;51.480;5.706;2022-09-23T00:48:49;11.07;;;7.82;;
42714;SDS011;28351;51.480;5.706;2022-09-23T00:51:20;12.13;;;8.63;;
42714;SDS011;28351;51.480;5.706;2022-09-23T00:53:49;12.25;;;8.45;;
42714;SDS011;28351;51.480;5.706;2022-09-23T00:56:16;12.45;;;7.50;;
42714;SDS011;28351;51.480;5.706;2022-09-23T01:01:11;12.05;;;7.72;;
42714;SDS011;28351;51.480;5.706;2022-09-23T01:03:38;13.88;;;8.02;;
42714;SDS011;28351;51.480;5.706;2022-09-23T01:06:06;14.63;;;8.05;;
42714;SDS011;28351;51.480;5.706;2022-09-23T01:08:32;13.70;;;8.20;;
42714;SDS011;28351;51.480;5.706;2022-09-23T01:16:23;13.43;;;9.30;;
42714;SDS011;28351;51.480;5.706;2022-09-23T01:19:04;11.98;;;8.68;;
42714;SDS011;28351;51.480;5.706;2022-09-23T01:21:56;11.15;;;8.05;;
42714;SDS011;28351;51.480;5.706;2022-09-23T01:30:13;11.65;;;8.35;;
42714;SDS011;28351;51.480;5.706;2022-09-23T01:32:55;12.10;;;8.18;;
42714;SDS011;28351;51.480;5.706;2022-09-23T01:35:35;14.20;;;8.32;;
42714;SDS011;28351;51.480;5.706;2022-09-23T01:38:31;11.75;;;8.90;;
42714;SDS011;28351;51.480;5.706;2022-09-23T01:46:44;14.27;;;9.48;;
42714;SDS011;28351;51.480;5.706;2022-09-23T01:51:48;16.30;;;9.30;;
42714;SDS011;28351;51.480;5.706;2022-09-23T01:54:31;13.73;;;8.68;;
42714;SDS011;28351;51.480;5.706;2022-09-23T01:59:35;15.43;;;9.57;;
42714;SDS011;28351;51.480;5.706;2022-09-23T02:04:43;12.85;;;9.45;;
42714;SDS011;28351;51.480;5.706;2022-09-23T02:07:28;10.98;;;8.60;;
42714;SDS011;28351;51.480;5.706;2022-09-23T02:10:09;16.73;;;9.48;;
42714;SDS011;28351;51.480;5.706;2022-09-23T02:12:49;14.07;;;8.48;;
42714;SDS011;28351;51.480;5.706;2022-09-23T02:15:18;12.38;;;8.90;;
42714;SDS011;28351;51.480;5.706;2022-09-23T02:17:56;11.70;;;8.73;;
42714;SDS011;28351;51.480;5.706;2022-09-23T02:20:31;11.70;;;8.97;;
42714;SDS011;28351;51.480;5.706;2022-09-23T02:23:07;15.43;;;9.13;;
42714;SDS011;28351;51.480;5.706;2022-09-23T02:25:52;14.25;;;9.32;;
42714;SDS011;28351;51.480;5.706;2022-09-23T02:28:33;14.48;;;9.88;;
42714;SDS011;28351;51.480;5.706;2022-09-23T02:37:04;14.30;;;9.65;;
42714;SDS011;28351;51.480;5.706;2022-09-23T02:39:46;12.02;;;8.93;;
42714;SDS011;28351;51.480;5.706;2022-09-23T02:42:38;18.95;;;9.25;;
42714;SDS011;28351;51.480;5.706;2022-09-23T02:45:05;14.13;;;9.23;;
42714;SDS011;28351;51.480;5.706;2022-09-23T02:47:31;13.70;;;9.55;;
42714;SDS011;28351;51.480;5.706;2022-09-23T02:50:01;14.93;;;9.63;;
42714;SDS011;28351;51.480;5.706;2022-09-23T02:52:27;12.68;;;9.20;;
42714;SDS011;28351;51.480;5.706;2022-09-23T02:54:53;13.00;;;9.00;;
42714;SDS011;28351;51.480;5.706;2022-09-23T02:57:18;13.95;;;9.95;;
42714;SDS011;28351;51.480;5.706;2022-09-23T02:59:44;14.48;;;9.23;;
42714;SDS011;28351;51.480;5.706;2022-09-23T03:10:53;13.77;;;9.25;;
42714;SDS011;28351;51.480;5.706;2022-09-23T03:16:40;12.90;;;8.68;;
42714;SDS011;28351;51.480;5.706;2022-09-23T03:19:16;12.82;;;9.38;;
42714;SDS011;28351;51.480;5.706;2022-09-23T03:21:53;15.27;;;9.43;;
42714;SDS011;28351;51.480;5.706;2022-09-23T03:24:29;15.15;;;9.70;;
42714;SDS011;28351;51.480;5.706;2022-09-23T03:29:38;13.40;;;8.55;;
42714;SDS011;28351;51.480;5.706;2022-09-23T03:32:15;13.65;;;8.93;;
42714;SDS011;28351;51.480;5.706;2022-09-23T03:34:45;14.02;;;9.25;;
42714;SDS011;28351;51.480;5.706;2022-09-23T03:37:19;12.52;;;9.02;;
42714;SDS011;28351;51.480;5.706;2022-09-23T03:40:03;14.43;;;9.38;;
42714;SDS011;28351;51.480;5.706;2022-09-23T03:42:40;16.08;;;9.50;;
42714;SDS011;28351;51.480;5.706;2022-09-23T03:45:08;14.30;;;9.00;;
42714;SDS011;28351;51.480;5.706;2022-09-23T03:47:36;11.98;;;9.35;;
42714;SDS011;28351;51.480;5.706;2022-09-23T03:50:03;15.55;;;9.60;;
42714;SDS011;28351;51.480;5.706;2022-09-23T03:52:30;14.20;;;9.35;;
42714;SDS011;28351;51.480;5.706;2022-09-23T03:54:55;18.27;;;9.07;;
42714;SDS011;28351;51.480;5.706;2022-09-23T03:57:21;14.57;;;8.65;;
42714;SDS011;28351;51.480;5.706;2022-09-23T03:59:48;13.82;;;9.20;;
42714;SDS011;28351;51.480;5.706;2022-09-23T04:02:17;16.85;;;9.27;;
42714;SDS011;28351;51.480;5.706;2022-09-23T04:04:46;16.10;;;8.93;;
42714;SDS011;28351;51.480;5.706;2022-09-23T04:07:12;13.77;;;9.43;;
42714;SDS011;28351;51.480;5.706;2022-09-23T04:09:39;12.32;;;8.13;;
42714;SDS011;28351;51.480;5.706;2022-09-23T04:12:04;13.65;;;8.80;;
42714;SDS011;28351;51.480;5.706;2022-09-23T04:14:30;14.93;;;9.20;;
42714;SDS011;28351;51.480;5.706;2022-09-23T04:16:56;13.23;;;9.23;;
42714;SDS011;28351;51.480;5.706;2022-09-23T04:19:22;12.60;;;8.40;;
42714;SDS011;28351;51.480;5.706;2022-09-23T04:21:48;15.13;;;9.80;;
42714;SDS011;28351;51.480;5.706;2022-09-23T04:24:14;12.98;;;9.18;;
42714;SDS011;28351;51.480;5.706;2022-09-23T04:26:41;13.13;;;8.88;;
42714;SDS011;28351;51.480;5.706;2022-09-23T04:29:07;12.30;;;8.63;;
42714;SDS011;28351;51.480;5.706;2022-09-23T04:31:36;14.10;;;9.35;;
42714;SDS011;28351;51.480;5.706;2022-09-23T04:34:02;13.23;;;8.95;;
42714;SDS011;28351;51.480;5.706;2022-09-23T04:36:27;22.00;;;9.30;;
42714;SDS011;28351;51.480;5.706;2022-09-23T04:38:54;14.18;;;8.73;;
42714;SDS011;28351;51.480;5.706;2022-09-23T04:41:20;16.58;;;9.23;;
42714;SDS011;28351;51.480;5.706;2022-09-23T04:43:46;10.68;;;8.60;;
42714;SDS011;28351;51.480;5.706;2022-09-23T04:46:12;12.13;;;9.43;;
42714;SDS011;28351;51.480;5.706;2022-09-23T04:48:38;13.20;;;8.85;;
42714;SDS011;28351;51.480;5.706;2022-09-23T04:51:09;13.07;;;9.18;;
42714;SDS011;28351;51.480;5.706;2022-09-23T04:53:35;12.40;;;9.00;;
42714;SDS011;28351;51.480;5.706;2022-09-23T04:56:13;14.15;;;9.13;;
42714;SDS011;28351;51.480;5.706;2022-09-23T04:58:40;14.98;;;9.45;;
42714;SDS011;28351;51.480;5.706;2022-09-23T05:01:17;17.15;;;9.13;;
42714;SDS011;28351;51.480;5.706;2022-09-23T05:03:57;13.13;;;8.85;;
42714;SDS011;28351;51.480;5.706;2022-09-23T05:06:29;14.50;;;9.00;;
42714;SDS011;28351;51.480;5.706;2022-09-23T05:08:58;11.73;;;8.90;;
42714;SDS011;28351;51.480;5.706;2022-09-23T05:11:25;15.93;;;9.02;;
42714;SDS011;28351;51.480;5.706;2022-09-23T05:13:53;12.47;;;8.93;;
42714;SDS011;28351;51.480;5.706;2022-09-23T05:16:19;12.63;;;8.45;;
42714;SDS011;28351;51.480;5.706;2022-09-23T05:18:47;13.77;;;9.13;;
42714;SDS011;28351;51.480;5.706;2022-09-23T05:21:14;15.68;;;9.13;;
42714;SDS011;28351;51.480;5.706;2022-09-23T05:23:41;12.23;;;8.52;;
42714;SDS011;28351;51.480;5.706;2022-09-23T05:26:12;13.25;;;9.10;;
42714;SDS011;28351;51.480;5.706;2022-09-23T05:31:29;15.90;;;8.85;;
42714;SDS011;28351;51.480;5.706;2022-09-23T05:33:58;19.23;;;9.60;;
42714;SDS011;28351;51.480;5.706;2022-09-23T05:36:27;12.32;;;8.60;;
42714;SDS011;28351;51.480;5.706;2022-09-23T05:38:54;13.75;;;9.43;;
42714;SDS011;28351;51.480;5.706;2022-09-23T05:41:25;13.70;;;8.27;;
42714;SDS011;28351;51.480;5.706;2022-09-23T05:46:21;14.18;;;9.25;;
42714;SDS011;28351;51.480;5.706;2022-09-23T05:48:48;14.18;;;9.13;;
42714;SDS011;28351;51.480;5.706;2022-09-23T05:51:18;14.20;;;9.05;;
42714;SDS011;28351;51.480;5.706;2022-09-23T05:53:45;11.55;;;9.23;;
42714;SDS011;28351;51.480;5.706;2022-09-23T05:56:15;12.80;;;9.27;;
42714;SDS011;28351;51.480;5.706;2022-09-23T05:58:47;14.02;;;8.52;;
42714;SDS011;28351;51.480;5.706;2022-09-23T06:01:15;14.02;;;9.52;;
42714;SDS011;28351;51.480;5.706;2022-09-23T06:03:59;16.53;;;9.50;;
42714;SDS011;28351;51.480;5.706;2022-09-23T06:06:36;15.85;;;9.23;;
42714;SDS011;28351;51.480;5.706;2022-09-23T06:09:04;15.32;;;9.38;;
42714;SDS011;28351;51.480;5.706;2022-09-23T06:11:31;15.25;;;10.13;;
42714;SDS011;28351;51.480;5.706;2022-09-23T06:13:58;14.57;;;9.52;;
42714;SDS011;28351;51.480;5.706;2022-09-23T06:16:25;13.65;;;9.82;;
42714;SDS011;28351;51.480;5.706;2022-09-23T06:18:51;14.38;;;9.23;;
42714;SDS011;28351;51.480;5.706;2022-09-23T06:21:17;11.45;;;8.68;;
42714;SDS011;28351;51.480;5.706;2022-09-23T06:23:43;11.88;;;9.00;;
42714;SDS011;28351;51.480;5.706;2022-09-23T06:26:09;16.65;;;9.65;;
42714;SDS011;28351;51.480;5.706;2022-09-23T06:28:37;14.07;;;8.93;;
42714;SDS011;28351;51.480;5.706;2022-09-23T06:31:09;15.98;;;9.15;;
42714;SDS011;28351;51.480;5.706;2022-09-23T06:33:37;12.75;;;8.98;;
42714;SDS011;28351;51.480;5.706;2022-09-23T06:36:04;11.82;;;8.55;;
42714;SDS011;28351;51.480;5.706;2022-09-23T06:38:31;15.55;;;8.80;;
42714;SDS011;28351;51.480;5.706;2022-09-23T06:40:58;12.70;;;8.52;;
42714;SDS011;28351;51.480;5.706;2022-09-23T06:43:24;12.02;;;8.35;;
42714;SDS011;28351;51.480;5.706;2022-09-23T06:45:51;11.95;;;8.23;;
42714;SDS011;28351;51.480;5.706;2022-09-23T06:48:17;11.52;;;8.65;;
42714;SDS011;28351;51.480;5.706;2022-09-23T06:50:43;10.77;;;8.55;;
42714;SDS011;28351;51.480;5.706;2022-09-23T06:53:09;13.85;;;9.07;;
42714;SDS011;28351;51.480;5.706;2022-09-23T06:55:34;10.70;;;8.35;;
42714;SDS011;28351;51.480;5.706;2022-09-23T06:58:00;18.77;;;9.18;;
42714;SDS011;28351;51.480;5.706;2022-09-23T07:00:26;9.60;;;7.50;;
42714;SDS011;28351;51.480;5.706;2022-09-23T07:02:53;10.80;;;7.75;;
42714;SDS011;28351;51.480;5.706;2022-09-23T07:05:19;9.93;;;7.18;;
42714;SDS011;28351;51.480;5.706;2022-09-23T07:07:46;11.25;;;7.65;;
42714;SDS011;28351;51.480;5.706;2022-09-23T07:10:12;10.13;;;7.25;;
42714;SDS011;28351;51.480;5.706;2022-09-23T07:12:38;9.93;;;7.10;;
42714;SDS011;28351;51.480;5.706;2022-09-23T07:15:04;8.13;;;6.50;;
42714;SDS011;28351;51.480;5.706;2022-09-23T07:17:31;9.40;;;6.38;;
42714;SDS011;28351;51.480;5.706;2022-09-23T07:20:06;9.95;;;6.68;;
42714;SDS011;28351;51.480;5.706;2022-09-23T07:22:33;9.38;;;6.25;;
42714;SDS011;28351;51.480;5.706;2022-09-23T07:24:59;9.00;;;6.22;;
42714;SDS011;28351;51.480;5.706;2022-09-23T07:27:26;10.35;;;6.20;;
42714;SDS011;28351;51.480;5.706;2022-09-23T07:29:52;7.28;;;5.20;;
42714;SDS011;28351;51.480;5.706;2022-09-23T07:32:19;8.52;;;5.38;;
42714;SDS011;28351;51.480;5.706;2022-09-23T07:34:46;6.90;;;4.60;;
42714;SDS011;28351;51.480;5.706;2022-09-23T07:37:15;7.47;;;4.80;;
42714;SDS011;28351;51.480;5.706;2022-09-23T07:39:41;6.50;;;4.35;;
42714;SDS011;28351;51.480;5.706;2022-09-23T07:42:08;6.03;;;4.20;;
42714;SDS011;28351;51.480;5.706;2022-09-23T07:44:38;6.40;;;4.10;;
42714;SDS011;28351;51.480;5.706;2022-09-23T07:47:04;7.25;;;4.88;;
42714;SDS011;28351;51.480;5.706;2022-09-23T07:49:30;7.93;;;5.03;;
42714;SDS011;28351;51.480;5.706;2022-09-23T07:51:58;7.75;;;4.60;;
42714;SDS011;28351;51.480;5.706;2022-09-23T07:54:24;6.97;;;4.45;;
42714;SDS011;28351;51.480;5.706;2022-09-23T07:56:53;6.68;;;4.80;;
42714;SDS011;28351;51.480;5.706;2022-09-23T07:59:28;7.13;;;4.70;;
42714;SDS011;28351;51.480;5.706;2022-09-23T08:01:54;8.30;;;4.65;;
42714;SDS011;28351;51.480;5.706;2022-09-23T08:04:25;8.10;;;4.90;;
42714;SDS011;28351;51.480;5.706;2022-09-23T08:06:56;6.00;;;4.75;;
42714;SDS011;28351;51.480;5.706;2022-09-23T08:09:31;5.75;;;4.65;;
42714;SDS011;28351;51.480;5.706;2022-09-23T08:12:06;7.72;;;4.70;;
42714;SDS011;28351;51.480;5.706;2022-09-23T08:14:32;6.18;;;4.38;;
42714;SDS011;28351;51.480;5.706;2022-09-23T08:16:58;8.77;;;4.88;;
42714;SDS011;28351;51.480;5.706;2022-09-23T08:19:23;10.15;;;5.18;;
42714;SDS011;28351;51.480;5.706;2022-09-23T08:21:49;6.60;;;4.75;;
42714;SDS011;28351;51.480;5.706;2022-09-23T08:24:19;6.80;;;4.40;;
42714;SDS011;28351;51.480;5.706;2022-09-23T08:26:47;8.25;;;4.72;;
42714;SDS011;28351;51.480;5.706;2022-09-23T08:29:17;6.75;;;4.78;;
42714;SDS011;28351;51.480;5.706;2022-09-23T08:31:45;7.47;;;4.93;;
42714;SDS011;28351;51.480;5.706;2022-09-23T08:34:11;4.93;;;4.28;;
42714;SDS011;28351;51.480;5.706;2022-09-23T08:36:37;6.28;;;4.70;;
42714;SDS011;28351;51.480;5.706;2022-09-23T08:39:06;6.40;;;4.65;;
42714;SDS011;28351;51.480;5.706;2022-09-23T08:41:37;7.63;;;4.63;;
42714;SDS011;28351;51.480;5.706;2022-09-23T08:44:49;8.23;;;5.03;;
42714;SDS011;28351;51.480;5.706;2022-09-23T08:47:23;6.10;;;4.35;;
42714;SDS011;28351;51.480;5.706;2022-09-23T08:50:02;7.00;;;4.32;;
42714;SDS011;28351;51.480;5.706;2022-09-23T08:55:31;7.32;;;4.63;;
42714;SDS011;28351;51.480;5.706;2022-09-23T09:01:33;9.10;;;4.93;;
42714;SDS011;28351;51.480;5.706;2022-09-23T09:04:02;6.50;;;4.85;;
42714;SDS011;28351;51.480;5.706;2022-09-23T09:06:46;7.07;;;4.82;;
42714;SDS011;28351;51.480;5.706;2022-09-23T09:09:31;6.43;;;4.55;;
42714;SDS011;28351;51.480;5.706;2022-09-23T09:12:13;7.55;;;4.95;;
42714;SDS011;28351;51.480;5.706;2022-09-23T09:25:40;6.80;;;5.35;;
42714;SDS011;28351;51.480;5.706;2022-09-23T09:28:13;6.28;;;5.00;;
42714;SDS011;28351;51.480;5.706;2022-09-23T09:30:43;7.68;;;5.40;;
42714;SDS011;28351;51.480;5.706;2022-09-23T09:33:13;8.55;;;4.95;;
42714;SDS011;28351;51.480;5.706;2022-09-23T09:35:48;5.22;;;4.47;;
42714;SDS011;28351;51.480;5.706;2022-09-23T09:38:35;8.40;;;5.45;;
42714;SDS011;28351;51.480;5.706;2022-09-23T09:41:08;7.53;;;4.68;;
42714;SDS011;28351;51.480;5.706;2022-09-23T09:43:39;5.82;;;4.65;;
42714;SDS011;28351;51.480;5.706;2022-09-23T09:49:48;6.65;;;4.50;;
42714;SDS011;28351;51.480;5.706;2022-09-23T09:54:37;6.47;;;4.25;;
42714;SDS011;28351;51.480;5.706;2022-09-23T09:57:04;8.50;;;4.60;;
42714;SDS011;28351;51.480;5.706;2022-09-23T09:59:36;9.38;;;5.03;;
42714;SDS011;28351;51.480;5.706;2022-09-23T10:04:56;6.78;;;4.82;;
42714;SDS011;28351;51.480;5.706;2022-09-23T10:07:26;8.00;;;5.03;;
42714;SDS011;28351;51.480;5.706;2022-09-23T10:09:53;6.50;;;4.43;;
42714;SDS011;28351;51.480;5.706;2022-09-23T10:12:20;6.18;;;4.35;;
42714;SDS011;28351;51.480;5.706;2022-09-23T10:14:50;5.35;;;4.45;;
42714;SDS011;28351;51.480;5.706;2022-09-23T10:17:27;5.75;;;3.90;;
42714;SDS011;28351;51.480;5.706;2022-09-23T10:20:00;6.72;;;4.50;;
42714;SDS011;28351;51.480;5.706;2022-09-23T10:22:31;6.88;;;4.20;;
42714;SDS011;28351;51.480;5.706;2022-09-23T10:25:01;6.07;;;3.90;;
42714;SDS011;28351;51.480;5.706;2022-09-23T10:27:32;6.85;;;3.90;;
42714;SDS011;28351;51.480;5.706;2022-09-23T10:30:22;6.05;;;3.83;;
42714;SDS011;28351;51.480;5.706;2022-09-23T10:32:47;7.57;;;4.18;;
42714;SDS011;28351;51.480;5.706;2022-09-23T10:35:15;5.40;;;4.20;;
42714;SDS011;28351;51.480;5.706;2022-09-23T10:40:39;5.80;;;3.80;;
42714;SDS011;28351;51.480;5.706;2022-09-23T10:50:01;6.70;;;4.28;;
42714;SDS011;28351;51.480;5.706;2022-09-23T10:55:35;4.68;;;3.35;;
42714;SDS011;28351;51.480;5.706;2022-09-23T11:21:07;5.40;;;3.28;;
42714;SDS011;28351;51.480;5.706;2022-09-23T11:23:50;7.28;;;3.35;;
42714;SDS011;28351;51.480;5.706;2022-09-23T11:29:20;5.28;;;3.03;;
42714;SDS011;28351;51.480;5.706;2022-09-23T11:32:03;3.78;;;2.90;;
42714;SDS011;28351;51.480;5.706;2022-09-23T11:37:32;5.78;;;2.67;;
42714;SDS011;28351;51.480;5.706;2022-09-23T11:40:22;4.18;;;2.60;;
42714;SDS011;28351;51.480;5.706;2022-09-23T11:43:02;4.88;;;3.20;;
42714;SDS011;28351;51.480;5.706;2022-09-23T11:45:57;4.43;;;2.88;;
42714;SDS011;28351;51.480;5.706;2022-09-23T11:51:20;4.40;;;2.90;;
42714;SDS011;28351;51.480;5.706;2022-09-23T11:53:53;4.40;;;2.92;;
42714;SDS011;28351;51.480;5.706;2022-09-23T11:56:27;6.07;;;3.13;;
42714;SDS011;28351;51.480;5.706;2022-09-23T12:02:09;4.22;;;2.63;;
42714;SDS011;28351;51.480;5.706;2022-09-23T12:04:39;5.35;;;2.70;;
42714;SDS011;28351;51.480;5.706;2022-09-23T12:07:21;4.57;;;2.33;;
42714;SDS011;28351;51.480;5.706;2022-09-23T12:10:03;3.25;;;2.30;;
42714;SDS011;28351;51.480;5.706;2022-09-23T12:12:34;4.23;;;2.43;;
42714;SDS011;28351;51.480;5.706;2022-09-23T12:18:18;4.65;;;2.08;;
42714;SDS011;28351;51.480;5.706;2022-09-23T12:26:45;4.47;;;2.00;;
42714;SDS011;28351;51.480;5.706;2022-09-23T12:29:18;5.35;;;2.08;;
42714;SDS011;28351;51.480;5.706;2022-09-23T12:31:44;6.57;;;2.65;;
42714;SDS011;28351;51.480;5.706;2022-09-23T12:36:46;3.33;;;1.58;;
42714;SDS011;28351;51.480;5.706;2022-09-23T12:39:16;2.47;;;1.25;;
42714;SDS011;28351;51.480;5.706;2022-09-23T12:41:59;3.78;;;1.42;;
42714;SDS011;28351;51.480;5.706;2022-09-23T12:44:40;3.22;;;1.65;;
42714;SDS011;28351;51.480;5.706;2022-09-23T12:49:39;2.67;;;1.70;;
42714;SDS011;28351;51.480;5.706;2022-09-23T12:54:38;2.88;;;1.70;;
42714;SDS011;28351;51.480;5.706;2022-09-23T12:57:08;3.72;;;1.50;;
42714;SDS011;28351;51.480;5.706;2022-09-23T13:07:50;4.07;;;2.22;;
42714;SDS011;28351;51.480;5.706;2022-09-23T13:10:33;3.72;;;1.73;;
42714;SDS011;28351;51.480;5.706;2022-09-23T13:13:27;2.65;;;1.60;;
42714;SDS011;28351;51.480;5.706;2022-09-23T13:15:59;5.95;;;2.03;;
42714;SDS011;28351;51.480;5.706;2022-09-23T13:24:15;3.90;;;2.00;;
42714;SDS011;28351;51.480;5.706;2022-09-23T13:26:44;2.72;;;1.73;;
42714;SDS011;28351;51.480;5.706;2022-09-23T13:29:15;4.40;;;2.00;;
42714;SDS011;28351;51.480;5.706;2022-09-23T13:31:45;3.72;;;1.90;;
42714;SDS011;28351;51.480;5.706;2022-09-23T13:34:12;4.10;;;2.28;;
42714;SDS011;28351;51.480;5.706;2022-09-23T13:36:43;5.10;;;1.95;;
42714;SDS011;28351;51.480;5.706;2022-09-23T13:39:43;3.25;;;2.08;;
42714;SDS011;28351;51.480;5.706;2022-09-23T13:42:02;5.68;;;2.25;;
42714;SDS011;28351;51.480;5.706;2022-09-23T13:44:29;4.72;;;2.03;;
42714;SDS011;28351;51.480;5.706;2022-09-23T13:46:58;4.50;;;2.30;;
42714;SDS011;28351;51.480;5.706;2022-09-23T13:49:26;5.28;;;2.40;;
42714;SDS011;28351;51.480;5.706;2022-09-23T13:51:55;5.20;;;2.70;;
42714;SDS011;28351;51.480;5.706;2022-09-23T13:54:31;5.88;;;2.90;;
42714;SDS011;28351;51.480;5.706;2022-09-23T13:57:00;4.18;;;2.47;;
42714;SDS011;28351;51.480;5.706;2022-09-23T13:59:27;4.30;;;2.30;;
42714;SDS011;28351;51.480;5.706;2022-09-23T14:02:01;3.80;;;2.10;;
42714;SDS011;28351;51.480;5.706;2022-09-23T14:04:27;5.30;;;2.75;;
42714;SDS011;28351;51.480;5.706;2022-09-23T14:06:52;2.95;;;2.33;;
42714;SDS011;28351;51.480;5.706;2022-09-23T14:09:20;10.95;;;2.78;;
42714;SDS011;28351;51.480;5.706;2022-09-23T14:11:55;3.90;;;2.30;;
42714;SDS011;28351;51.480;5.706;2022-09-23T14:14:23;5.18;;;2.40;;
42714;SDS011;28351;51.480;5.706;2022-09-23T14:16:50;7.45;;;2.75;;
42714;SDS011;28351;51.480;5.706;2022-09-23T14:19:17;4.75;;;2.85;;
42714;SDS011;28351;51.480;5.706;2022-09-23T14:21:50;7.40;;;2.78;;
42714;SDS011;28351;51.480;5.706;2022-09-23T14:24:19;5.55;;;2.85;;
42714;SDS011;28351;51.480;5.706;2022-09-23T14:29:41;4.45;;;2.75;;
42714;SDS011;28351;51.480;5.706;2022-09-23T14:32:11;4.93;;;2.55;;
42714;SDS011;28351;51.480;5.706;2022-09-23T14:34:41;5.55;;;2.60;;
42714;SDS011;28351;51.480;5.706;2022-09-23T14:37:19;5.93;;;3.17;;
42714;SDS011;28351;51.480;5.706;2022-09-23T14:40:12;6.63;;;2.50;;
42714;SDS011;28351;51.480;5.706;2022-09-23T14:42:57;6.00;;;2.90;;
42714;SDS011;28351;51.480;5.706;2022-09-23T14:45:32;7.15;;;2.63;;
42714;SDS011;28351;51.480;5.706;2022-09-23T14:48:04;5.40;;;2.95;;
42714;SDS011;28351;51.480;5.706;2022-09-23T14:50:37;4.00;;;2.28;;
42714;SDS011;28351;51.480;5.706;2022-09-23T14:55:43;4.68;;;2.80;;
42714;SDS011;28351;51.480;5.706;2022-09-23T14:58:15;5.07;;;2.75;;
42714;SDS011;28351;51.480;5.706;2022-09-23T15:00:55;5.07;;;2.83;;
42714;SDS011;28351;51.480;5.706;2022-09-23T15:03:28;6.70;;;3.08;;
42714;SDS011;28351;51.480;5.706;2022-09-23T15:05:57;6.88;;;2.67;;
42714;SDS011;28351;51.480;5.706;2022-09-23T15:08:29;7.38;;;2.95;;
42714;SDS011;28351;51.480;5.706;2022-09-23T15:10:57;5.23;;;3.10;;
42714;SDS011;28351;51.480;5.706;2022-09-23T15:13:28;4.80;;;2.70;;
42714;SDS011;28351;51.480;5.706;2022-09-23T15:15:56;7.18;;;3.13;;
42714;SDS011;28351;51.480;5.706;2022-09-23T15:18:24;7.13;;;2.97;;
42714;SDS011;28351;51.480;5.706;2022-09-23T15:21:08;4.25;;;3.08;;
42714;SDS011;28351;51.480;5.706;2022-09-23T15:26:19;5.53;;;3.15;;
42714;SDS011;28351;51.480;5.706;2022-09-23T15:28:50;6.72;;;3.33;;
42714;SDS011;28351;51.480;5.706;2022-09-23T15:31:22;5.70;;;3.30;;
42714;SDS011;28351;51.480;5.706;2022-09-23T15:33:50;5.75;;;3.35;;
42714;SDS011;28351;51.480;5.706;2022-09-23T15:36:17;6.88;;;3.60;;
42714;SDS011;28351;51.480;5.706;2022-09-23T15:38:45;6.65;;;3.97;;
42714;SDS011;28351;51.480;5.706;2022-09-23T15:41:12;5.50;;;3.35;;
42714;SDS011;28351;51.480;5.706;2022-09-23T15:46:07;9.93;;;3.58;;
42714;SDS011;28351;51.480;5.706;2022-09-23T15:48:38;6.13;;;4.03;;
42714;SDS011;28351;51.480;5.706;2022-09-23T15:51:06;5.28;;;3.70;;
42714;SDS011;28351;51.480;5.706;2022-09-23T15:53:33;7.13;;;3.83;;
42714;SDS011;28351;51.480;5.706;2022-09-23T15:56:02;5.43;;;3.55;;
42714;SDS011;28351;51.480;5.706;2022-09-23T15:58:29;8.82;;;4.15;;
42714;SDS011;28351;51.480;5.706;2022-09-23T16:00:56;5.80;;;3.90;;
42714;SDS011;28351;51.480;5.706;2022-09-23T16:03:24;7.22;;;3.78;;
42714;SDS011;28351;51.480;5.706;2022-09-23T16:08:20;5.22;;;3.75;;
42714;SDS011;28351;51.480;5.706;2022-09-23T16:10:49;6.95;;;3.83;;
42714;SDS011;28351;51.480;5.706;2022-09-23T16:13:15;8.73;;;4.82;;
42714;SDS011;28351;51.480;5.706;2022-09-23T16:15:42;6.80;;;4.28;;
42714;SDS011;28351;51.480;5.706;2022-09-23T16:18:12;6.68;;;4.38;;
42714;SDS011;28351;51.480;5.706;2022-09-23T16:20:38;5.57;;;3.95;;
42714;SDS011;28351;51.480;5.706;2022-09-23T16:25:36;7.43;;;3.92;;
42714;SDS011;28351;51.480;5.706;2022-09-23T16:28:02;8.50;;;4.25;;
42714;SDS011;28351;51.480;5.706;2022-09-23T16:30:29;8.35;;;4.70;;
42714;SDS011;28351;51.480;5.706;2022-09-23T16:32:57;6.85;;;4.22;;
42714;SDS011;28351;51.480;5.706;2022-09-23T16:35:23;6.97;;;3.97;;
42714;SDS011;28351;51.480;5.706;2022-09-23T16:37:56;6.75;;;3.70;;
42714;SDS011;28351;51.480;5.706;2022-09-23T16:40:25;5.43;;;3.72;;
42714;SDS011;28351;51.480;5.706;2022-09-23T16:42:51;6.22;;;3.45;;
42714;SDS011;28351;51.480;5.706;2022-09-23T16:45:22;6.75;;;3.75;;
42714;SDS011;28351;51.480;5.706;2022-09-23T16:47:48;4.97;;;3.35;;
42714;SDS011;28351;51.480;5.706;2022-09-23T16:50:17;8.00;;;3.63;;
42714;SDS011;28351;51.480;5.706;2022-09-23T16:52:44;6.38;;;3.30;;
42714;SDS011;28351;51.480;5.706;2022-09-23T16:55:11;6.57;;;3.22;;
42714;SDS011;28351;51.480;5.706;2022-09-23T16:57:38;5.47;;;3.17;;
42714;SDS011;28351;51.480;5.706;2022-09-23T17:00:05;6.68;;;3.60;;
42714;SDS011;28351;51.480;5.706;2022-09-23T17:02:52;10.73;;;3.60;;
42714;SDS011;28351;51.480;5.706;2022-09-23T17:05:39;6.25;;;3.58;;
42714;SDS011;28351;51.480;5.706;2022-09-23T17:08:05;9.07;;;4.80;;
42714;SDS011;28351;51.480;5.706;2022-09-23T17:10:31;9.48;;;5.22;;
42714;SDS011;28351;51.480;5.706;2022-09-23T17:12:58;7.30;;;4.20;;
42714;SDS011;28351;51.480;5.706;2022-09-23T17:15:24;9.90;;;3.90;;
42714;SDS011;28351;51.480;5.706;2022-09-23T17:17:52;7.78;;;3.60;;
42714;SDS011;28351;51.480;5.706;2022-09-23T17:20:18;6.63;;;3.60;;
42714;SDS011;28351;51.480;5.706;2022-09-23T17:22:44;5.15;;;3.80;;
42714;SDS011;28351;51.480;5.706;2022-09-23T17:25:09;7.53;;;4.10;;
42714;SDS011;28351;51.480;5.706;2022-09-23T17:27:35;7.80;;;4.65;;
42714;SDS011;28351;51.480;5.706;2022-09-23T17:30:02;9.13;;;4.60;;
42714;SDS011;28351;51.480;5.706;2022-09-23T17:32:29;7.72;;;3.95;;
42714;SDS011;28351;51.480;5.706;2022-09-23T17:34:55;7.90;;;4.45;;
42714;SDS011;28351;51.480;5.706;2022-09-23T17:37:21;7.40;;;4.30;;
42714;SDS011;28351;51.480;5.706;2022-09-23T17:39:46;10.73;;;4.65;;
42714;SDS011;28351;51.480;5.706;2022-09-23T17:42:15;11.38;;;4.32;;
42714;SDS011;28351;51.480;5.706;2022-09-23T17:44:51;5.82;;;4.18;;
42714;SDS011;28351;51.480;5.706;2022-09-23T17:47:22;7.80;;;4.28;;
42714;SDS011;28351;51.480;5.706;2022-09-23T17:49:48;7.35;;;4.45;;
42714;SDS011;28351;51.480;5.706;2022-09-23T17:52:15;9.52;;;4.78;;
42714;SDS011;28351;51.480;5.706;2022-09-23T17:54:41;7.47;;;4.32;;
42714;SDS011;28351;51.480;5.706;2022-09-23T17:57:07;9.00;;;4.60;;